sensor_id;sensor_type;location;lat;lon;timestamp;pressure;altitude;pressure_sealevel;temperature;humidity
66273;BME280;58450;52.150;4.466;2023-02-01T00:00:03;102006.66;;;6.77;100.00
66273;BME280;58450;52.150;4.466;2023-02-01T00:02:31;101993.59;;;6.84;100.00
66273;BME280;58450;52.150;4.466;2023-02-01T00:05:00;101992.28;;;6.78;100.00
66273;BME280;58450;52.150;4.466;2023-02-01T00:07:28;101991.56;;;6.76;100.00
66273;BME280;58450;52.150;4.466;2023-02-01T00:09:55;102005.38;;;6.72;100.00
66273;BME280;58450;52.150;4.466;2023-02-01T00:12:22;101995.09;;;6.77;100.00
66273;BME280;58450;52.150;4.466;2023-02-01T00:14:50;102011.97;;;6.68;100.00
66273;BME280;58450;52.150;4.466;2023-02-01T00:17:18;102000.28;;;6.69;100.00
66273;BME280;58450;52.150;4.466;2023-02-01T00:19:45;101999.28;;;6.70;100.00
66273;BME280;58450;52.150;4.466;2023-02-01T00:22:14;102008.88;;;6.72;100.00
66273;BME280;58450;52.150;4.466;2023-02-01T00:24:41;101993.28;;;6.77;100.00
66273;BME280;58450;52.150;4.466;2023-02-01T00:27:09;101982.72;;;6.76;100.00
66273;BME280;58450;52.150;4.466;2023-02-01T00:29:36;102003.25;;;6.75;100.00
66273;BME280;58450;52.150;4.466;2023-02-01T00:32:04;102001.56;;;6.74;100.00
66273;BME280;58450;52.150;4.466;2023-02-01T00:34:31;101988.91;;;6.76;100.00
66273;BME280;58450;52.150;4.466;2023-02-01T00:36:59;101988.44;;;6.71;100.00
66273;BME280;58450;52.150;4.466;2023-02-01T00:39:28;102010.00;;;6.70;100.00
66273;BME280;58450;52.150;4.466;2023-02-01T00:41:56;102012.84;;;6.78;100.00
66273;BME280;58450;52.150;4.466;2023-02-01T00:44:23;101995.41;;;6.84;100.00
66273;BME280;58450;52.150;4.466;2023-02-01T00:46:50;101968.34;;;6.77;100.00
66273;BME280;58450;52.150;4.466;2023-02-01T00:49:18;101980.88;;;6.76;100.00
66273;BME280;58450;52.150;4.466;2023-02-01T00:51:46;101969.06;;;6.79;100.00
66273;BME280;58450;52.150;4.466;2023-02-01T00:54:13;101954.13;;;6.76;100.00
66273;BME280;58450;52.150;4.466;2023-02-01T00:56:42;101957.84;;;6.85;100.00
66273;BME280;58450;52.150;4.466;2023-02-01T00:59:11;101971.59;;;6.80;100.00
66273;BME280;58450;52.150;4.466;2023-02-01T01:01:38;101958.47;;;6.77;100.00
66273;BME280;58450;52.150;4.466;2023-02-01T01:04:06;101973.72;;;6.77;100.00
66273;BME280;58450;52.150;4.466;2023-02-01T01:06:34;101981.59;;;6.78;100.00
66273;BME280;58450;52.150;4.466;2023-02-01T01:09:04;101959.38;;;6.88;100.00
66273;BME280;58450;52.150;4.466;2023-02-01T01:11:34;101955.16;;;6.85;100.00
66273;BME280;58450;52.150;4.466;2023-02-01T01:14:05;101966.41;;;6.79;100.00
66273;BME280;58450;52.150;4.466;2023-02-01T01:16:35;101963.56;;;6.80;100.00
66273;BME280;58450;52.150;4.466;2023-02-01T01:19:03;101983.28;;;6.79;100.00
66273;BME280;58450;52.150;4.466;2023-02-01T01:21:31;101977.63;;;6.73;100.00
66273;BME280;58450;52.150;4.466;2023-02-01T01:23:59;101986.81;;;6.80;100.00
66273;BME280;58450;52.150;4.466;2023-02-01T01:26:28;101972.09;;;6.95;100.00
66273;BME280;58450;52.150;4.466;2023-02-01T01:28:57;101978.25;;;6.86;100.00
66273;BME280;58450;52.150;4.466;2023-02-01T01:31:27;101966.69;;;6.86;100.00
66273;BME280;58450;52.150;4.466;2023-02-01T01:33:56;101970.78;;;6.90;100.00
66273;BME280;58450;52.150;4.466;2023-02-01T01:36:26;101991.03;;;6.83;100.00
66273;BME280;58450;52.150;4.466;2023-02-01T01:38:54;101981.66;;;6.88;100.00
66273;BME280;58450;52.150;4.466;2023-02-01T01:41:24;101990.66;;;6.87;100.00
66273;BME280;58450;52.150;4.466;2023-02-01T01:43:54;101961.59;;;6.83;100.00
66273;BME280;58450;52.150;4.466;2023-02-01T01:46:24;101960.91;;;6.80;100.00
66273;BME280;58450;52.150;4.466;2023-02-01T01:49:03;101954.56;;;6.82;100.00
66273;BME280;58450;52.150;4.466;2023-02-01T01:51:38;101969.09;;;6.89;100.00
66273;BME280;58450;52.150;4.466;2023-02-01T01:54:11;101954.63;;;6.91;100.00
66273;BME280;58450;52.150;4.466;2023-02-01T01:56:43;101965.69;;;6.77;100.00
66273;BME280;58450;52.150;4.466;2023-02-01T01:59:16;101973.00;;;6.75;100.00
66273;BME280;58450;52.150;4.466;2023-02-01T02:01:45;101965.25;;;6.82;100.00
66273;BME280;58450;52.150;4.466;2023-02-01T02:04:13;101959.69;;;6.94;100.00
66273;BME280;58450;52.150;4.466;2023-02-01T02:06:43;101961.88;;;6.79;100.00
66273;BME280;58450;52.150;4.466;2023-02-01T02:09:14;101935.13;;;6.79;100.00
66273;BME280;58450;52.150;4.466;2023-02-01T02:11:42;101939.91;;;6.76;100.00
66273;BME280;58450;52.150;4.466;2023-02-01T02:14:11;101956.06;;;6.74;100.00
66273;BME280;58450;52.150;4.466;2023-02-01T02:16:58;101966.50;;;6.77;100.00
66273;BME280;58450;52.150;4.466;2023-02-01T02:20:07;101950.78;;;6.84;100.00
66273;BME280;58450;52.150;4.466;2023-02-01T02:26:35;101955.78;;;6.68;100.00
66273;BME280;58450;52.150;4.466;2023-02-01T02:29:48;101941.44;;;6.78;100.00
66273;BME280;58450;52.150;4.466;2023-02-01T02:32:47;101951.31;;;6.78;100.00
66273;BME280;58450;52.150;4.466;2023-02-01T02:35:45;101933.41;;;6.69;100.00
66273;BME280;58450;52.150;4.466;2023-02-01T02:38:23;101939.75;;;6.77;100.00
66273;BME280;58450;52.150;4.466;2023-02-01T02:41:03;101932.72;;;6.76;100.00
66273;BME280;58450;52.150;4.466;2023-02-01T02:43:44;101913.88;;;6.78;100.00
66273;BME280;58450;52.150;4.466;2023-02-01T02:46:41;101925.94;;;6.72;100.00
66273;BME280;58450;52.150;4.466;2023-02-01T02:49:38;101908.38;;;6.79;100.00
66273;BME280;58450;52.150;4.466;2023-02-01T02:52:32;101892.28;;;6.70;100.00
66273;BME280;58450;52.150;4.466;2023-02-01T02:55:21;101905.78;;;6.68;100.00
66273;BME280;58450;52.150;4.466;2023-02-01T02:57:51;101916.75;;;6.65;100.00
66273;BME280;58450;52.150;4.466;2023-02-01T03:00:37;101905.06;;;6.66;100.00
66273;BME280;58450;52.150;4.466;2023-02-01T03:03:23;101884.53;;;6.67;100.00
66273;BME280;58450;52.150;4.466;2023-02-01T03:06:13;101893.78;;;6.53;100.00
66273;BME280;58450;52.150;4.466;2023-02-01T03:08:43;101893.63;;;6.54;100.00
66273;BME280;58450;52.150;4.466;2023-02-01T03:11:13;101905.31;;;6.53;100.00
66273;BME280;58450;52.150;4.466;2023-02-01T03:13:45;101897.13;;;6.45;100.00
66273;BME280;58450;52.150;4.466;2023-02-01T03:16:19;101892.81;;;6.54;100.00
66273;BME280;58450;52.150;4.466;2023-02-01T03:18:56;101906.03;;;6.55;100.00
66273;BME280;58450;52.150;4.466;2023-02-01T03:21:32;101936.25;;;6.46;100.00
66273;BME280;58450;52.150;4.466;2023-02-01T03:24:07;101903.53;;;6.63;100.00
66273;BME280;58450;52.150;4.466;2023-02-01T03:26:42;101871.25;;;6.55;100.00
66273;BME280;58450;52.150;4.466;2023-02-01T03:29:18;101899.00;;;6.54;100.00
66273;BME280;58450;52.150;4.466;2023-02-01T03:31:51;101902.06;;;6.49;100.00
66273;BME280;58450;52.150;4.466;2023-02-01T03:34:19;101888.03;;;6.57;100.00
66273;BME280;58450;52.150;4.466;2023-02-01T03:36:50;101900.13;;;6.52;100.00
66273;BME280;58450;52.150;4.466;2023-02-01T03:39:28;101890.41;;;6.50;100.00
66273;BME280;58450;52.150;4.466;2023-02-01T03:42:04;101868.84;;;6.42;100.00
66273;BME280;58450;52.150;4.466;2023-02-01T03:44:39;101892.63;;;6.45;100.00
66273;BME280;58450;52.150;4.466;2023-02-01T03:47:14;101882.09;;;6.54;100.00
66273;BME280;58450;52.150;4.466;2023-02-01T03:49:50;101883.34;;;6.49;100.00
66273;BME280;58450;52.150;4.466;2023-02-01T03:52:28;101895.88;;;6.49;100.00
66273;BME280;58450;52.150;4.466;2023-02-01T03:55:00;101896.13;;;6.46;100.00
66273;BME280;58450;52.150;4.466;2023-02-01T03:57:31;101919.22;;;6.47;100.00
66273;BME280;58450;52.150;4.466;2023-02-01T04:00:07;101891.66;;;6.46;100.00
66273;BME280;58450;52.150;4.466;2023-02-01T04:02:42;101907.59;;;6.58;100.00
66273;BME280;58450;52.150;4.466;2023-02-01T04:05:09;101919.41;;;6.55;100.00
66273;BME280;58450;52.150;4.466;2023-02-01T04:07:38;101908.00;;;6.53;100.00
66273;BME280;58450;52.150;4.466;2023-02-01T04:10:07;101926.16;;;6.49;100.00
66273;BME280;58450;52.150;4.466;2023-02-01T04:12:36;101914.91;;;6.56;100.00
66273;BME280;58450;52.150;4.466;2023-02-01T04:15:05;101899.16;;;6.62;100.00
66273;BME280;58450;52.150;4.466;2023-02-01T04:17:33;101894.44;;;6.45;100.00
66273;BME280;58450;52.150;4.466;2023-02-01T04:20:01;101878.00;;;6.49;100.00
66273;BME280;58450;52.150;4.466;2023-02-01T04:22:28;101890.06;;;6.44;100.00
66273;BME280;58450;52.150;4.466;2023-02-01T04:24:57;101902.19;;;6.48;100.00
66273;BME280;58450;52.150;4.466;2023-02-01T04:27:24;101887.41;;;6.44;100.00
66273;BME280;58450;52.150;4.466;2023-02-01T04:29:52;101892.97;;;6.31;100.00
66273;BME280;58450;52.150;4.466;2023-02-01T04:32:19;101886.78;;;6.30;100.00
66273;BME280;58450;52.150;4.466;2023-02-01T04:34:47;101902.69;;;6.32;100.00
66273;BME280;58450;52.150;4.466;2023-02-01T04:37:14;101900.41;;;6.27;100.00
66273;BME280;58450;52.150;4.466;2023-02-01T04:39:42;101901.97;;;6.30;100.00
66273;BME280;58450;52.150;4.466;2023-02-01T04:42:10;101887.63;;;6.31;100.00
66273;BME280;58450;52.150;4.466;2023-02-01T04:44:38;101895.06;;;6.27;100.00
66273;BME280;58450;52.150;4.466;2023-02-01T04:47:07;101871.25;;;6.24;100.00
66273;BME280;58450;52.150;4.466;2023-02-01T04:49:35;101886.72;;;6.20;100.00
66273;BME280;58450;52.150;4.466;2023-02-01T04:52:03;101877.47;;;6.25;100.00
66273;BME280;58450;52.150;4.466;2023-02-01T04:54:31;101894.59;;;6.22;100.00
66273;BME280;58450;52.150;4.466;2023-02-01T04:56:58;101870.44;;;6.24;100.00
66273;BME280;58450;52.150;4.466;2023-02-01T04:59:27;101871.41;;;6.23;100.00
66273;BME280;58450;52.150;4.466;2023-02-01T05:01:55;101869.00;;;6.19;100.00
66273;BME280;58450;52.150;4.466;2023-02-01T05:04:22;101886.00;;;6.18;100.00
66273;BME280;58450;52.150;4.466;2023-02-01T05:06:50;101876.56;;;6.14;100.00
66273;BME280;58450;52.150;4.466;2023-02-01T05:09:17;101874.19;;;6.21;100.00
66273;BME280;58450;52.150;4.466;2023-02-01T05:11:44;101892.50;;;6.16;100.00
66273;BME280;58450;52.150;4.466;2023-02-01T05:14:31;101889.22;;;6.12;100.00
66273;BME280;58450;52.150;4.466;2023-02-01T05:16:58;101894.03;;;6.18;100.00
66273;BME280;58450;52.150;4.466;2023-02-01T05:19:26;101895.88;;;6.18;100.00
66273;BME280;58450;52.150;4.466;2023-02-01T05:21:53;101905.28;;;6.22;100.00
66273;BME280;58450;52.150;4.466;2023-02-01T05:24:20;101925.13;;;6.19;100.00
66273;BME280;58450;52.150;4.466;2023-02-01T05:26:48;101924.59;;;6.26;100.00
66273;BME280;58450;52.150;4.466;2023-02-01T05:29:16;101907.59;;;6.27;100.00
66273;BME280;58450;52.150;4.466;2023-02-01T05:31:46;101933.78;;;6.33;100.00
66273;BME280;58450;52.150;4.466;2023-02-01T05:34:15;101919.72;;;6.31;100.00
66273;BME280;58450;52.150;4.466;2023-02-01T05:36:43;101907.88;;;6.33;100.00
66273;BME280;58450;52.150;4.466;2023-02-01T05:39:10;101914.03;;;6.24;100.00
66273;BME280;58450;52.150;4.466;2023-02-01T05:41:38;101898.53;;;6.18;100.00
66273;BME280;58450;52.150;4.466;2023-02-01T05:44:05;101914.25;;;6.11;100.00
66273;BME280;58450;52.150;4.466;2023-02-01T05:46:34;101896.78;;;6.07;100.00
66273;BME280;58450;52.150;4.466;2023-02-01T05:49:03;101896.66;;;6.09;100.00
66273;BME280;58450;52.150;4.466;2023-02-01T05:51:31;101906.22;;;6.11;100.00
66273;BME280;58450;52.150;4.466;2023-02-01T05:53:59;101926.94;;;6.19;100.00
66273;BME280;58450;52.150;4.466;2023-02-01T05:56:26;101918.50;;;6.14;100.00
66273;BME280;58450;52.150;4.466;2023-02-01T05:58:54;101897.38;;;6.11;100.00
66273;BME280;58450;52.150;4.466;2023-02-01T06:01:21;101906.69;;;6.16;100.00
66273;BME280;58450;52.150;4.466;2023-02-01T06:03:49;101913.91;;;6.26;100.00
66273;BME280;58450;52.150;4.466;2023-02-01T06:06:17;101908.56;;;6.26;100.00
66273;BME280;58450;52.150;4.466;2023-02-01T06:08:45;101904.19;;;6.25;100.00
66273;BME280;58450;52.150;4.466;2023-02-01T06:11:13;101914.09;;;6.34;100.00
66273;BME280;58450;52.150;4.466;2023-02-01T06:13:40;101900.03;;;6.32;100.00
66273;BME280;58450;52.150;4.466;2023-02-01T06:16:08;101914.47;;;6.29;100.00
66273;BME280;58450;52.150;4.466;2023-02-01T06:18:35;101909.72;;;6.33;100.00
66273;BME280;58450;52.150;4.466;2023-02-01T06:21:04;101920.16;;;6.36;100.00
66273;BME280;58450;52.150;4.466;2023-02-01T06:23:33;101925.63;;;6.34;100.00
66273;BME280;58450;52.150;4.466;2023-02-01T06:26:03;101915.19;;;6.31;100.00
66273;BME280;58450;52.150;4.466;2023-02-01T06:28:34;101909.47;;;6.36;100.00
66273;BME280;58450;52.150;4.466;2023-02-01T06:31:03;101933.28;;;6.39;100.00
66273;BME280;58450;52.150;4.466;2023-02-01T06:33:32;101930.41;;;6.31;100.00
66273;BME280;58450;52.150;4.466;2023-02-01T06:36:01;101911.72;;;6.41;100.00
66273;BME280;58450;52.150;4.466;2023-02-01T06:38:33;101945.25;;;6.45;100.00
66273;BME280;58450;52.150;4.466;2023-02-01T06:41:01;101910.75;;;6.42;100.00
66273;BME280;58450;52.150;4.466;2023-02-01T06:43:30;101933.44;;;6.47;100.00
66273;BME280;58450;52.150;4.466;2023-02-01T06:45:59;101916.53;;;6.47;100.00
66273;BME280;58450;52.150;4.466;2023-02-01T06:48:28;101914.47;;;6.50;100.00
66273;BME280;58450;52.150;4.466;2023-02-01T06:50:56;101923.41;;;6.40;100.00
66273;BME280;58450;52.150;4.466;2023-02-01T06:53:23;101910.09;;;6.49;100.00
66273;BME280;58450;52.150;4.466;2023-02-01T06:55:53;101914.09;;;6.34;100.00
66273;BME280;58450;52.150;4.466;2023-02-01T06:58:21;101908.16;;;6.30;100.00
66273;BME280;58450;52.150;4.466;2023-02-01T07:00:49;101925.88;;;6.31;100.00
66273;BME280;58450;52.150;4.466;2023-02-01T07:03:19;101920.28;;;6.34;100.00
66273;BME280;58450;52.150;4.466;2023-02-01T07:05:47;101936.00;;;6.28;100.00
66273;BME280;58450;52.150;4.466;2023-02-01T07:08:14;101927.00;;;6.29;100.00
66273;BME280;58450;52.150;4.466;2023-02-01T07:10:42;101913.75;;;6.27;100.00
66273;BME280;58450;52.150;4.466;2023-02-01T07:13:10;101925.84;;;6.21;100.00
66273;BME280;58450;52.150;4.466;2023-02-01T07:15:38;101915.00;;;6.23;100.00
66273;BME280;58450;52.150;4.466;2023-02-01T07:18:06;101926.59;;;6.33;100.00
66273;BME280;58450;52.150;4.466;2023-02-01T07:20:33;101909.31;;;6.38;100.00
66273;BME280;58450;52.150;4.466;2023-02-01T07:23:00;101913.56;;;6.40;100.00
66273;BME280;58450;52.150;4.466;2023-02-01T07:25:28;101949.69;;;6.34;100.00
66273;BME280;58450;52.150;4.466;2023-02-01T07:27:55;101933.53;;;6.36;100.00
66273;BME280;58450;52.150;4.466;2023-02-01T07:30:24;101927.59;;;6.32;100.00
66273;BME280;58450;52.150;4.466;2023-02-01T07:32:52;101929.88;;;6.37;100.00
66273;BME280;58450;52.150;4.466;2023-02-01T07:35:19;101937.72;;;6.29;100.00
66273;BME280;58450;52.150;4.466;2023-02-01T07:37:47;101949.13;;;6.31;100.00
66273;BME280;58450;52.150;4.466;2023-02-01T07:40:14;101937.31;;;6.33;100.00
66273;BME280;58450;52.150;4.466;2023-02-01T07:42:42;101945.47;;;6.32;100.00
66273;BME280;58450;52.150;4.466;2023-02-01T07:45:10;101952.50;;;6.33;100.00
66273;BME280;58450;52.150;4.466;2023-02-01T07:47:40;101946.44;;;6.31;100.00
66273;BME280;58450;52.150;4.466;2023-02-01T07:50:08;101962.34;;;6.32;100.00
66273;BME280;58450;52.150;4.466;2023-02-01T07:52:36;101935.50;;;6.34;100.00
66273;BME280;58450;52.150;4.466;2023-02-01T07:55:04;101946.38;;;6.42;100.00
66273;BME280;58450;52.150;4.466;2023-02-01T07:57:32;101955.91;;;6.35;100.00
66273;BME280;58450;52.150;4.466;2023-02-01T08:00:00;101956.66;;;6.47;100.00
66273;BME280;58450;52.150;4.466;2023-02-01T08:02:46;101956.13;;;6.53;100.00
66273;BME280;58450;52.150;4.466;2023-02-01T08:05:14;101964.31;;;6.52;100.00
66273;BME280;58450;52.150;4.466;2023-02-01T08:07:41;101924.84;;;6.44;100.00
66273;BME280;58450;52.150;4.466;2023-02-01T08:10:09;101947.09;;;6.44;100.00
66273;BME280;58450;52.150;4.466;2023-02-01T08:12:37;101947.09;;;6.44;100.00
66273;BME280;58450;52.150;4.466;2023-02-01T08:15:05;101931.53;;;6.59;100.00
66273;BME280;58450;52.150;4.466;2023-02-01T08:17:34;101921.53;;;6.61;100.00
66273;BME280;58450;52.150;4.466;2023-02-01T08:20:03;101921.81;;;6.58;100.00
66273;BME280;58450;52.150;4.466;2023-02-01T08:22:31;101922.06;;;6.55;100.00
66273;BME280;58450;52.150;4.466;2023-02-01T08:24:59;101918.34;;;6.77;100.00
66273;BME280;58450;52.150;4.466;2023-02-01T08:27:27;101931.56;;;6.69;100.00
66273;BME280;58450;52.150;4.466;2023-02-01T08:29:55;101922.28;;;6.73;100.00
66273;BME280;58450;52.150;4.466;2023-02-01T08:32:22;101932.88;;;6.85;100.00
66273;BME280;58450;52.150;4.466;2023-02-01T08:34:50;101955.69;;;6.79;100.00
66273;BME280;58450;52.150;4.466;2023-02-01T08:37:19;101934.38;;;6.68;100.00
66273;BME280;58450;52.150;4.466;2023-02-01T08:39:46;101924.94;;;6.73;100.00
66273;BME280;58450;52.150;4.466;2023-02-01T08:42:16;101936.06;;;6.69;100.00
66273;BME280;58450;52.150;4.466;2023-02-01T08:45:01;101934.81;;;6.73;100.00
66273;BME280;58450;52.150;4.466;2023-02-01T08:47:30;101931.16;;;6.74;100.00
66273;BME280;58450;52.150;4.466;2023-02-01T08:49:58;101916.66;;;6.76;100.00
66273;BME280;58450;52.150;4.466;2023-02-01T08:52:27;101924.84;;;6.75;100.00
66273;BME280;58450;52.150;4.466;2023-02-01T08:54:54;101933.31;;;6.90;100.00
66273;BME280;58450;52.150;4.466;2023-02-01T08:57:22;101921.69;;;7.10;100.00
66273;BME280;58450;52.150;4.466;2023-02-01T08:59:49;101917.06;;;7.13;100.00
66273;BME280;58450;52.150;4.466;2023-02-01T09:02:17;101908.03;;;7.14;100.00
66273;BME280;58450;52.150;4.466;2023-02-01T09:04:45;101898.75;;;7.18;100.00
66273;BME280;58450;52.150;4.466;2023-02-01T09:07:12;101932.50;;;6.99;100.00
66273;BME280;58450;52.150;4.466;2023-02-01T09:09:41;101953.03;;;6.89;100.00
66273;BME280;58450;52.150;4.466;2023-02-01T09:12:09;101899.97;;;6.94;100.00
66273;BME280;58450;52.150;4.466;2023-02-01T09:14:37;101916.47;;;6.99;100.00
66273;BME280;58450;52.150;4.466;2023-02-01T09:17:04;101888.53;;;6.92;100.00
66273;BME280;58450;52.150;4.466;2023-02-01T09:19:32;101901.09;;;6.91;100.00
66273;BME280;58450;52.150;4.466;2023-02-01T09:21:59;101931.81;;;6.97;100.00
66273;BME280;58450;52.150;4.466;2023-02-01T09:24:27;101903.41;;;7.16;100.00
66273;BME280;58450;52.150;4.466;2023-02-01T09:26:56;101940.53;;;6.99;100.00
66273;BME280;58450;52.150;4.466;2023-02-01T09:29:23;101918.44;;;7.07;100.00
66273;BME280;58450;52.150;4.466;2023-02-01T09:31:51;101917.44;;;7.08;100.00
66273;BME280;58450;52.150;4.466;2023-02-01T09:34:18;101912.34;;;6.95;100.00
66273;BME280;58450;52.150;4.466;2023-02-01T09:36:46;101945.44;;;6.94;100.00
66273;BME280;58450;52.150;4.466;2023-02-01T09:39:13;101929.94;;;6.88;100.00
66273;BME280;58450;52.150;4.466;2023-02-01T09:41:51;101930.25;;;6.94;100.00
66273;BME280;58450;52.150;4.466;2023-02-01T09:44:42;101922.78;;;6.88;100.00
66273;BME280;58450;52.150;4.466;2023-02-01T09:47:23;101942.34;;;6.89;100.00
66273;BME280;58450;52.150;4.466;2023-02-01T09:49:56;101938.50;;;6.82;100.00
66273;BME280;58450;52.150;4.466;2023-02-01T09:52:32;101913.97;;;6.76;100.00
66273;BME280;58450;52.150;4.466;2023-02-01T09:55:09;101916.28;;;6.81;100.00
66273;BME280;58450;52.150;4.466;2023-02-01T09:57:50;101905.13;;;6.76;100.00
66273;BME280;58450;52.150;4.466;2023-02-01T10:00:25;101917.97;;;6.82;100.00
66273;BME280;58450;52.150;4.466;2023-02-01T10:02:55;101914.03;;;6.86;100.00
66273;BME280;58450;52.150;4.466;2023-02-01T10:05:35;101928.13;;;6.88;100.00
66273;BME280;58450;52.150;4.466;2023-02-01T10:08:19;101965.84;;;6.85;100.00
66273;BME280;58450;52.150;4.466;2023-02-01T10:11:06;101929.72;;;7.01;100.00
66273;BME280;58450;52.150;4.466;2023-02-01T10:13:54;101918.25;;;6.89;100.00
66273;BME280;58450;52.150;4.466;2023-02-01T10:16:36;101921.09;;;6.97;100.00
66273;BME280;58450;52.150;4.466;2023-02-01T10:19:23;101906.47;;;7.11;100.00
66273;BME280;58450;52.150;4.466;2023-02-01T10:22:00;101957.09;;;7.24;100.00
66273;BME280;58450;52.150;4.466;2023-02-01T10:24:38;101927.31;;;6.98;100.00
66273;BME280;58450;52.150;4.466;2023-02-01T10:27:14;101915.75;;;7.07;100.00
66273;BME280;58450;52.150;4.466;2023-02-01T10:29:48;101931.94;;;6.95;100.00
66273;BME280;58450;52.150;4.466;2023-02-01T10:32:23;101963.66;;;7.10;100.00
66273;BME280;58450;52.150;4.466;2023-02-01T10:34:58;101924.31;;;6.91;100.00
66273;BME280;58450;52.150;4.466;2023-02-01T10:37:30;101924.81;;;7.16;100.00
66273;BME280;58450;52.150;4.466;2023-02-01T10:40:02;101965.22;;;7.03;100.00
66273;BME280;58450;52.150;4.466;2023-02-01T10:42:40;101921.69;;;7.10;100.00
66273;BME280;58450;52.150;4.466;2023-02-01T10:45:13;101909.56;;;7.06;100.00
66273;BME280;58450;52.150;4.466;2023-02-01T10:47:43;101940.41;;;7.01;100.00
66273;BME280;58450;52.150;4.466;2023-02-01T10:50:17;101927.59;;;7.04;100.00
66273;BME280;58450;52.150;4.466;2023-02-01T10:52:54;101911.81;;;7.01;100.00
66273;BME280;58450;52.150;4.466;2023-02-01T10:55:31;101894.78;;;7.02;100.00
66273;BME280;58450;52.150;4.466;2023-02-01T10:58:03;101928.03;;;7.00;100.00
66273;BME280;58450;52.150;4.466;2023-02-01T11:00:44;101918.84;;;7.02;100.00
66273;BME280;58450;52.150;4.466;2023-02-01T11:03:39;101918.84;;;7.02;100.00
66273;BME280;58450;52.150;4.466;2023-02-01T11:06:17;101909.72;;;7.15;100.00
66273;BME280;58450;52.150;4.466;2023-02-01T11:08:51;101908.31;;;7.20;100.00
66273;BME280;58450;52.150;4.466;2023-02-01T11:11:22;101890.28;;;7.22;100.00
66273;BME280;58450;52.150;4.466;2023-02-01T11:13:55;101912.13;;;7.28;100.00
66273;BME280;58450;52.150;4.466;2023-02-01T11:16:34;101939.91;;;7.27;100.00
66273;BME280;58450;52.150;4.466;2023-02-01T11:19:03;101898.31;;;7.22;100.00
66273;BME280;58450;52.150;4.466;2023-02-01T11:21:31;101922.84;;;7.28;100.00
66273;BME280;58450;52.150;4.466;2023-02-01T11:24:01;101896.94;;;7.28;100.00
66273;BME280;58450;52.150;4.466;2023-02-01T11:26:31;101907.38;;;7.31;100.00
66273;BME280;58450;52.150;4.466;2023-02-01T11:29:03;101891.84;;;7.35;100.00
66273;BME280;58450;52.150;4.466;2023-02-01T11:31:38;101906.94;;;7.36;100.00
66273;BME280;58450;52.150;4.466;2023-02-01T11:34:12;101874.38;;;7.50;100.00
66273;BME280;58450;52.150;4.466;2023-02-01T11:36:45;101903.53;;;7.34;100.00
66273;BME280;58450;52.150;4.466;2023-02-01T11:39:23;101896.66;;;7.31;100.00
66273;BME280;58450;52.150;4.466;2023-02-01T11:42:00;101877.34;;;7.37;100.00
66273;BME280;58450;52.150;4.466;2023-02-01T11:44:33;101920.91;;;7.39;100.00
66273;BME280;58450;52.150;4.466;2023-02-01T11:47:24;101871.41;;;7.24;100.00
66273;BME280;58450;52.150;4.466;2023-02-01T11:49:54;101902.72;;;7.33;100.00
66273;BME280;58450;52.150;4.466;2023-02-01T11:52:36;101887.06;;;7.19;100.00
66273;BME280;58450;52.150;4.466;2023-02-01T11:55:27;101886.78;;;7.22;100.00
66273;BME280;58450;52.150;4.466;2023-02-01T11:58:12;101879.56;;;7.22;100.00
66273;BME280;58450;52.150;4.466;2023-02-01T12:04:39;101875.78;;;7.25;100.00
66273;BME280;58450;52.150;4.466;2023-02-01T12:07:31;101880.72;;;7.30;100.00
66273;BME280;58450;52.150;4.466;2023-02-01T12:10:21;101858.03;;;7.34;100.00
66273;BME280;58450;52.150;4.466;2023-02-01T12:13:07;101891.84;;;7.25;100.00
66273;BME280;58450;52.150;4.466;2023-02-01T12:15:56;101873.38;;;7.32;100.00
66273;BME280;58450;52.150;4.466;2023-02-01T12:18:58;101871.69;;;7.31;100.00
66273;BME280;58450;52.150;4.466;2023-02-01T12:21:55;101891.84;;;7.35;100.00
66273;BME280;58450;52.150;4.466;2023-02-01T12:24:47;101876.09;;;7.42;100.00
66273;BME280;58450;52.150;4.466;2023-02-01T12:27:41;101872.97;;;7.46;100.00
66273;BME280;58450;52.150;4.466;2023-02-01T12:30:39;101862.81;;;7.60;100.00
66273;BME280;58450;52.150;4.466;2023-02-01T12:33:31;101861.41;;;7.56;100.00
66273;BME280;58450;52.150;4.466;2023-02-01T12:36:15;101867.88;;;7.73;100.00
66273;BME280;58450;52.150;4.466;2023-02-01T12:38:54;101863.75;;;7.88;100.00
66273;BME280;58450;52.150;4.466;2023-02-01T12:41:40;101848.53;;;7.79;100.00
66273;BME280;58450;52.150;4.466;2023-02-01T12:44:41;101876.91;;;7.81;100.00
66273;BME280;58450;52.150;4.466;2023-02-01T12:47:19;101875.09;;;7.72;100.00
66273;BME280;58450;52.150;4.466;2023-02-01T12:49:55;101861.97;;;7.69;100.00
66273;BME280;58450;52.150;4.466;2023-02-01T12:52:35;101842.47;;;7.87;100.00
66273;BME280;58450;52.150;4.466;2023-02-01T12:55:16;101923.16;;;7.83;100.00
66273;BME280;58450;52.150;4.466;2023-02-01T12:57:50;101857.44;;;7.79;100.00
66273;BME280;58450;52.150;4.466;2023-02-01T13:00:24;101899.63;;;7.77;100.00
66273;BME280;58450;52.150;4.466;2023-02-01T13:03:03;101855.59;;;7.80;100.00
66273;BME280;58450;52.150;4.466;2023-02-01T13:05:46;101857.16;;;7.73;100.00
66273;BME280;58450;52.150;4.466;2023-02-01T13:08:23;101861.25;;;7.67;100.00
66273;BME280;58450;52.150;4.466;2023-02-01T13:10:59;101877.34;;;7.67;100.00
66273;BME280;58450;52.150;4.466;2023-02-01T13:13:39;101864.78;;;7.67;100.00
66273;BME280;58450;52.150;4.466;2023-02-01T13:16:15;101853.09;;;7.59;100.00
66273;BME280;58450;52.150;4.466;2023-02-01T13:18:59;101866.34;;;7.50;100.00
66273;BME280;58450;52.150;4.466;2023-02-01T13:21:35;101863.41;;;7.44;100.00
66273;BME280;58450;52.150;4.466;2023-02-01T13:24:19;101850.97;;;7.52;100.00
66273;BME280;58450;52.150;4.466;2023-02-01T13:26:55;101867.34;;;7.39;100.00